Terminal Aerodrome Forecast
Issued by NWS

Home | Current Version | Previous Version | Text Only | Print | Product List | Glossary On
Versions: 1 2 3 4 5 6 7 8 9 10 11 12 13 14 15 16 17
000
FTUS45 KGJT 201136
TAFDRO
TAF
KDRO 201136Z 2012/2112 01007KT P6SM SCT009
      TEMPO 2012/2014 5SM BR BKN009
     FM202100 25008KT P6SM SCT150
     FM210300 31005KT P6SM SCT150=

USA.gov is the U.S. government's official web portal to all federal, state and local government web resources and services.